Hanford, CA

3:43 PM PDT on August 28, 2015 (GMT -0700)
Hanford Municipal | | Change Station
CLOSE
Current Station
Airport
Location: Hanford,
Elevation: 243 ft
Nearby Weather Stations

Elev 243 ft 36.32 °N, 119.63 °W | Updated 50 minutes ago

Clear
Clear
101 °F
Feels Like 101 °F
N
4
Wind Variable Wind from ESE

Today
High -- | Low -- °F
--% Chance of Precip.
Yesterday
High -- | Low -- °F
Precip. -- in
6:26 AM 7:32 PM
Waxing Gibbous, 99% visible
Pressure 29.83 in
Visibility 10.0 miles
Clouds Clear
Dew Point 50 °F
Humidity 18%
Rainfall 0.00 in
Snow Depth Not available.
UV 8 out of 12
Pollen 8.90 out of 12
Air Quality Not available.
Flu Activity Not available.
METAR KHJO 282153Z AUTO 11003KT 10SM CLR 38/10 A2983 RMK AO2 SLP099 T03830100
Pressure 29.83 in
Visibility 10.0 miles
Clouds Clear
Dew Point 50 °F
Humidity 18%
Rainfall 0.00 in
Snow Depth Not available.
UV 8 out of 12
Pollen 8.90 out of 12
Air Quality Not available.
Flu Activity Not available.
METAR KHJO 282153Z AUTO 11003KT 10SM CLR 38/10 A2983 RMK AO2 SLP099 T03830100

10-Day Weather Forecast

×

Almanac

Astronomy

Aug. 28, 2015 Rise Set
Actual Time
Civil Twilight
Nautical Twilight
Astronomical Twilight
Moon
Length of Visible Light
Length of Day
Tomorrow will be .
, % of the Moon is Illuminated

Today's Extremes

State Highs State Lows

Community

WunderPhotos

Upload Photos

1,850,516 photos uploaded!

WunderBlogs® & News

Nearby

Air Quality

  Air Quality AQ Index Pollutant
Not available.

Snow Depth

Station Depth Elevation

Earthquake Activity

City Distance Mag. Time & Date
Minimum magnitude displayed is 2.5.

Coastal Water Temperatures

Place Temperature

Stations

Nearby Weather Stations

Station Location Temp. Windchill Dew Point Humidity Wind Precip. Elev Updated Type